Time;durP1;ratioP1;P1;durP2;ratioP2;P2;SDS_P1;SDS_P2;PMS_P1;PMS_P2;Temp;Humidity;BMP_temperature;BMP_pressure;BME280_temperature;BME280_humidity;BME280_pressure;Samples;Min_cycle;Max_cycle;Signal;HPM_P1;HPM_P2
2023/05/01 00:01:00;;;;;;;;;21.40;19.00;;;;;-150.52;100.00;63513.88;2028544;27;2839817;-74
2023/05/01 00:02:12;;;;;;;;;29.40;23.40;;;;;-150.52;100.00;63513.88;2047985;27;3594990;-73
2023/05/01 00:03:24;;;;;;;;;21.80;20.60;;;;;-150.52;100.00;63513.88;2049182;27;3589797;-73
2023/05/01 00:04:36;;;;;;;;;21.80;18.00;;;;;-150.52;100.00;63513.88;2019165;27;3579395;-73
2023/05/01 00:05:47;;;;;;;;;25.80;23.80;;;;;-150.52;100.00;63513.88;2012057;27;2841945;-73
2023/05/01 00:06:59;;;;;;;;;24.20;20.80;;;;;-150.52;100.00;63513.88;2041677;27;3587727;-73
2023/05/01 00:08:11;;;;;;;;;26.20;25.40;;;;;-150.52;100.00;63513.88;2052582;27;3585608;-73
2023/05/01 00:09:22;;;;;;;;;26.00;23.00;;;;;-150.52;100.00;63513.88;1999608;27;3583577;-73
2023/05/01 00:10:35;;;;;;;;;26.40;26.40;;;;;-150.52;100.00;63513.88;2023455;27;3588742;-73
2023/05/01 00:11:46;;;;;;;;;26.00;24.50;;;;;-150.52;100.00;63513.88;1996638;28;2843003;-73
2023/05/01 00:12:58;;;;;;;;;28.67;26.00;;;;;-150.52;100.00;63513.88;2011505;27;3580849;-73
2023/05/01 00:14:10;;;;;;;;;30.80;27.20;;;;;-150.52;100.00;63513.88;2029813;27;3592943;-73
2023/05/01 00:15:22;;;;;;;;;22.33;21.67;;;;;-150.52;100.00;63513.88;2013842;28;3582917;-73
2023/05/01 00:16:34;;;;;;;;;28.60;26.20;;;;;-150.52;100.00;63513.88;2016857;27;3585620;-73
2023/05/01 00:17:45;;;;;;;;;29.00;23.00;;;;;-150.52;100.00;63513.88;2004698;27;2506501;-73
2023/05/01 00:18:57;;;;;;;;;29.60;24.80;;;;;-150.52;100.00;63513.88;2017278;27;3589819;-73
2023/05/01 00:20:09;;;;;;;;;26.40;22.00;;;;;-150.52;100.00;63513.88;2053822;27;3579754;-73
2023/05/01 00:21:21;;;;;;;;;26.00;25.67;;;;;-150.52;100.00;63513.88;2007162;27;3591921;-73
2023/05/01 00:22:33;;;;;;;;;21.00;18.80;;;;;-150.52;100.00;63513.88;2024762;27;3585613;-73
2023/05/01 00:23:45;;;;;;;;;22.00;21.60;;;;;-150.52;100.00;63513.88;2050694;27;3569976;-73
2023/05/01 00:24:57;;;;;;;;;28.00;26.67;;;;;-150.52;100.00;63513.88;2014482;27;3586693;-73
2023/05/01 00:26:10;;;;;;;;;28.00;26.63;;;;;-150.52;100.00;63513.88;2017070;28;3591861;-73
2023/05/01 00:27:22;;;;;;;;;31.33;24.33;;;;;-150.52;100.00;63513.88;2022659;27;3606532;-73
2023/05/01 00:28:34;;;;;;;;;27.20;26.00;;;;;-150.52;100.00;63513.88;2024680;27;3598111;-73
2023/05/01 00:29:46;;;;;;;;;24.60;21.20;;;;;-150.52;100.00;63513.88;2021815;27;3567893;-73
2023/05/01 00:30:58;;;;;;;;;29.20;26.40;;;;;-150.52;100.00;63513.88;2022430;27;3586662;-73
2023/05/01 00:32:09;;;;;;;;;30.60;26.20;;;;;-150.52;100.00;63513.88;2004816;27;2848706;-73
2023/05/01 00:33:21;;;;;;;;;25.00;24.67;;;;;-150.52;100.00;63513.88;2044959;27;3590192;-73
2023/05/01 00:34:33;;;;;;;;;26.67;25.00;;;;;-150.52;100.00;63513.88;2009250;28;3584607;-73
2023/05/01 00:35:44;;;;;;;;;28.00;25.50;;;;;-150.52;100.00;63513.88;2000899;27;2852347;-73
2023/05/01 00:36:55;;;;;;;;;25.00;24.00;;;;;-150.52;100.00;63513.88;2008157;27;2842970;-73
2023/05/01 00:38:07;;;;;;;;;21.00;21.00;;;;;-150.52;100.00;63513.88;2005822;28;3574175;-73
2023/05/01 00:39:18;;;;;;;;;27.20;25.20;;;;;-150.52;100.00;63513.88;2010872;27;2835675;-73
2023/05/01 00:40:30;;;;;;;;;22.33;22.33;;;;;-150.52;100.00;63513.88;2031393;28;3581442;-73
2023/05/01 00:41:42;;;;;;;;;30.67;28.33;;;;;-150.52;100.00;63513.88;2009589;28;3604752;-73
2023/05/01 00:42:54;;;;;;;;;30.40;25.80;;;;;-150.52;100.00;63513.88;2019413;28;3590816;-73
2023/05/01 00:44:06;;;;;;;;;29.67;24.33;;;;;-150.52;100.00;63513.88;1997822;27;3604394;-73
2023/05/01 00:45:18;;;;;;;;;30.20;25.00;;;;;-150.52;100.00;63513.88;2029906;27;3578684;-73
2023/05/01 00:46:31;;;;;;;;;26.33;25.33;;;;;-150.52;100.00;63513.88;2021996;27;3587759;-73
2023/05/01 00:47:41;;;;;;;;;26.00;23.00;;;;;-150.52;100.00;63513.88;2008641;27;2842953;-73
2023/05/01 00:48:53;;;;;;;;;28.40;25.20;;;;;-150.52;100.00;63513.88;2016015;28;3585605;-73
2023/05/01 00:50:06;;;;;;;;;28.00;23.80;;;;;-150.52;100.00;63513.88;2042252;28;3591977;-73
2023/05/01 00:51:19;;;;;;;;;29.00;23.67;;;;;-150.52;100.00;63513.88;1993035;27;3587731;-73
2023/05/01 00:52:30;;;;;;;;;28.50;26.00;;;;;-150.52;100.00;63513.88;2009111;27;2858631;-73
2023/05/01 00:53:42;;;;;;;;;21.20;19.00;;;;;-150.52;100.00;63513.88;2012990;28;3575192;-73
2023/05/01 00:54:54;;;;;;;;;29.00;23.20;;;;;-150.52;100.00;63513.88;2044293;27;3584574;-73
2023/05/01 00:56:07;;;;;;;;;27.00;25.67;;;;;-150.52;100.00;63513.88;2005469;27;3587727;-73
2023/05/01 00:57:20;;;;;;;;;24.00;22.50;;;;;-150.52;100.00;63513.88;2004410;27;2837117;-73
2023/05/01 00:58:31;;;;;;;;;28.00;22.50;;;;;-150.52;100.00;63513.88;2023555;28;2847125;-73
2023/05/01 00:59:42;;;;;;;;;26.00;23.00;;;;;-150.52;100.00;63513.88;2004432;27;3582480;-73
2023/05/01 01:00:55;;;;;;;;;20.00;17.80;;;;;-150.52;100.00;63513.88;2029679;27;3568938;-73
2023/05/01 01:02:06;;;;;;;;;21.50;20.00;;;;;-150.52;100.00;63513.88;2034885;27;2834623;-73
2023/05/01 01:03:18;;;;;;;;;27.00;24.67;;;;;-150.52;100.00;63513.88;2009981;27;3593321;-73
2023/05/01 01:04:31;;;;;;;;;24.20;20.20;;;;;-150.52;100.00;63513.88;2011930;27;3578326;-73
2023/05/01 01:05:50;;;;;;;;;25.67;21.67;;;;;-150.52;100.00;63513.88;2003528;27;3581483;-73
2023/05/01 01:07:08;;;;;;;;;27.00;24.00;;;;;-150.52;100.00;63513.88;2007415;27;2845069;-73
2023/05/01 01:08:29;;;;;;;;;23.00;21.00;;;;;-150.52;100.00;63513.88;2008667;27;2836791;-73
2023/05/01 01:10:17;;;;;;;;;24.50;22.00;;;;;-150.52;100.00;63513.88;2002956;27;2828395;-73
2023/05/01 01:11:37;;;;;;;;;21.00;19.67;;;;;-150.52;100.00;63513.88;2005924;27;3575224;-73
2023/05/01 01:12:59;;;;;;;;;31.50;26.00;;;;;-150.52;100.00;63513.88;2002129;27;2858594;-73
2023/05/01 01:14:10;;;;;;;;;25.50;23.00;;;;;-150.52;100.00;63513.88;2008396;27;2853418;-73
2023/05/01 01:15:32;;;;;;;;;30.29;27.14;;;;;-150.52;100.00;63513.88;2025560;27;3594001;-73
2023/05/01 01:16:58;;;;;;;;;24.00;20.33;;;;;-150.52;100.00;63513.88;1998487;28;3580456;-73
2023/05/01 01:18:23;;;;;;;;;28.00;23.00;;;;;-150.52;100.00;63513.88;1994284;28;2844023;-73
2023/05/01 01:19:52;;;;;;;;;24.00;20.00;;;;;-150.52;100.00;63513.88;1991006;28;2835674;-73
2023/05/01 01:21:11;;;;;;;;;28.50;25.50;;;;;-150.52;100.00;63513.88;1996467;27;2841932;-73
2023/05/01 01:22:25;;;;;;;;;26.00;24.00;;;;;-150.52;100.00;63513.88;2004887;27;3582567;-73
2023/05/01 01:23:45;;;;;;;;;23.00;21.67;;;;;-150.52;100.00;63513.88;2006335;27;3580426;-73
2023/05/01 01:25:28;;;;;;;;;28.50;24.00;;;;;-150.52;100.00;63513.88;2020917;28;2847135;-73
2023/05/01 01:26:48;;;;;;;;;23.50;18.50;;;;;-150.52;100.00;63513.88;2005961;27;2838810;-73
2023/05/01 01:28:31;;;;;;;;;31.00;25.00;;;;;-150.52;100.00;63513.88;2005961;27;2847199;-73
2023/05/01 01:30:19;;;;;;;;;29.00;24.50;;;;;-150.52;100.00;63513.88;1989643;28;2851315;-73
2023/05/01 01:32:02;;;;;;;;;21.50;19.50;;;;;-150.52;100.00;63513.88;1991918;28;2835710;-73
2023/05/01 01:33:35;;;;;;;;;23.50;23.00;;;;;-150.52;100.00;63513.88;2016570;28;2846091;-73
2023/05/01 01:34:50;;;;;;;;;30.00;22.00;;;;;-150.52;100.00;63513.88;1991331;28;2861727;-73
2023/05/01 01:36:17;;;;;;;;;27.00;22.33;;;;;-150.52;100.00;63513.88;1983195;28;3576303;-73
2023/05/01 01:37:36;;;;;;;;;23.00;23.00;;;;;-150.52;100.00;63513.88;1987638;28;2847144;-73
2023/05/01 01:39:00;;;;;;;;;27.00;24.00;;;;;-150.52;100.00;63513.88;1991854;28;2839845;-73
2023/05/01 01:40:15;;;;;;;;;27.00;25.50;;;;;-150.52;100.00;63513.88;1989399;28;2848202;-73
2023/05/01 01:41:32;;;;;;;;;23.00;22.00;;;;;-150.52;100.00;63513.88;1991983;28;2837762;-73
2023/05/01 01:42:48;;;;;;;;;26.00;21.00;;;;;-150.52;100.00;63513.88;1991490;28;2839852;-73
2023/05/01 01:44:24;;;;;;;;;27.33;22.00;;;;;-150.52;100.00;63513.88;1991869;28;3584651;-73
2023/05/01 01:45:45;;;;;;;;;24.50;24.50;;;;;-150.52;100.00;63513.88;1995141;28;2833631;-73
2023/05/01 01:46:58;;;;;;;;;29.50;25.00;;;;;-150.52;100.00;63513.88;1992755;28;2837773;-73
2023/05/01 01:48:11;;;;;;;;;24.00;20.50;;;;;-150.52;100.00;63513.88;1992968;28;2849235;-73
2023/05/01 01:49:26;;;;;;;;;25.00;21.00;;;;;-150.52;100.00;63513.88;1993501;28;2844372;-73
2023/05/01 01:50:39;;;;;;;;;27.50;24.50;;;;;-150.52;100.00;63513.88;1985676;28;2836724;-74
2023/05/01 01:51:54;;;;;;;;;29.50;23.00;;;;;-150.52;100.00;63513.88;1986902;28;2842981;-73
2023/05/01 01:53:07;;;;;;;;;23.00;21.50;;;;;-150.52;100.00;63513.88;1992656;28;2847135;-73
2023/05/01 01:54:25;;;;;;;;;24.67;23.33;;;;;-150.52;100.00;63513.88;1990343;28;3578404;-73
2023/05/01 01:55:39;;;;;;;;;25.67;23.67;;;;;-150.52;100.00;63513.88;1990724;28;3587063;-73
2023/05/01 01:56:52;;;;;;;;;27.67;21.33;;;;;-150.52;100.00;63513.88;1992219;28;3587790;-73
2023/05/01 01:58:05;;;;;;;;;24.00;23.00;;;;;-150.52;100.00;63513.88;2017432;28;2841951;-73
2023/05/01 01:59:20;;;;;;;;;22.00;20.00;;;;;-150.52;100.00;63513.88;1992954;28;2839856;-73
2023/05/01 02:00:34;;;;;;;;;24.67;23.33;;;;;-150.52;100.00;63513.88;1990797;28;3579437;-73
2023/05/01 02:01:48;;;;;;;;;27.67;21.67;;;;;-150.52;100.00;63513.88;1991617;28;3597098;-73
2023/05/01 02:03:00;;;;;;;;;26.50;21.00;;;;;-150.52;100.00;63513.88;1993793;28;2840899;-73
2023/05/01 02:04:15;;;;;;;;;28.00;26.00;;;;;-150.52;100.00;63513.88;1990736;28;3570055;-73
2023/05/01 02:05:26;;;;;;;;;28.00;24.50;;;;;-150.52;100.00;63513.88;1992975;28;2842973;-73
2023/05/01 02:06:38;;;;;;;;;28.50;24.50;;;;;-150.52;100.00;63513.88;1989529;28;2850229;-73
2023/05/01 02:07:51;;;;;;;;;25.33;22.00;;;;;-150.52;100.00;63513.88;1989983;28;2835647;-73
2023/05/01 02:09:05;;;;;;;;;30.00;27.00;;;;;-150.52;100.00;63513.88;2018593;28;2849203;-73
2023/05/01 02:10:17;;;;;;;;;28.50;25.50;;;;;-150.52;100.00;63513.88;1991448;28;2841908;-73
2023/05/01 02:11:30;;;;;;;;;26.00;24.50;;;;;-150.52;100.00;63513.88;1995245;28;2840855;-73
2023/05/01 02:12:44;;;;;;;;;29.50;23.50;;;;;-150.52;100.00;63513.88;1989956;28;2851302;-73
2023/05/01 02:13:56;;;;;;;;;31.00;24.67;;;;;-150.52;100.00;63513.88;1991389;28;3579348;-73
2023/05/01 02:15:09;;;;;;;;;31.20;25.80;;;;;-150.52;100.00;63513.88;1999030;28;3594460;-73
2023/05/01 02:16:24;;;;;;;;;27.00;24.00;;;;;-150.52;100.00;63513.88;1994693;28;2846194;-73
2023/05/01 02:17:36;;;;;;;;;25.33;22.67;;;;;-150.52;100.00;63513.88;1983623;28;3581445;-73
2023/05/01 02:18:49;;;;;;;;;25.00;25.00;;;;;-150.52;100.00;63513.88;2018917;28;2835655;-73
2023/05/01 02:20:02;;;;;;;;;31.50;29.00;;;;;-150.52;100.00;63513.88;1995509;28;2847145;-73
2023/05/01 02:21:13;;;;;;;;;26.00;22.50;;;;;-150.52;100.00;63513.88;1995040;28;2848130;-73
2023/05/01 02:22:26;;;;;;;;;33.33;27.67;;;;;-150.52;100.00;63513.88;1989135;28;3608580;-73
2023/05/01 02:23:37;;;;;;;;;36.00;27.00;;;;;-150.52;100.00;63513.88;1990578;28;2871482;-73
2023/05/01 02:24:51;;;;;;;;;33.67;27.67;;;;;-150.52;100.00;63513.88;1991030;28;3605904;-73
2023/05/01 02:26:03;;;;;;;;;36.00;30.00;;;;;-150.52;100.00;63513.88;1994567;28;2864875;-73
2023/05/01 02:27:22;;;;;;;;;26.00;23.50;;;;;-150.52;100.00;63513.88;1994092;28;2842981;-73
2023/05/01 02:28:34;;;;;;;;;32.00;29.50;;;;;-150.52;100.00;63513.88;1993355;27;2846082;-73
2023/05/01 02:29:44;;;;;;;;;27.00;25.50;;;;;-150.52;100.00;63513.88;2009943;27;2832557;-73
2023/05/01 02:30:57;;;;;;;;;18.33;17.00;;;;;-150.52;100.00;63513.88;2015365;28;3556471;-73
2023/05/01 02:32:08;;;;;;;;;37.00;28.00;;;;;-150.52;100.00;63513.88;2019298;28;2867917;-73
2023/05/01 02:33:20;;;;;;;;;28.80;27.20;;;;;-150.52;100.00;63513.88;2030133;27;3584575;-73
2023/05/01 02:34:35;;;;;;;;;26.00;22.00;;;;;-150.52;100.00;63513.88;2020635;27;3581529;-73
2023/05/01 02:35:46;;;;;;;;;29.00;25.33;;;;;-150.52;100.00;63513.88;2008851;27;3587753;-73
2023/05/01 02:36:59;;;;;;;;;33.00;23.33;;;;;-150.52;100.00;63513.88;2026272;27;3597125;-73
2023/05/01 02:38:11;;;;;;;;;25.67;23.33;;;;;-150.52;100.00;63513.88;2007619;27;3588094;-73
2023/05/01 02:39:22;;;;;;;;;25.00;19.00;;;;;-150.52;100.00;63513.88;2009370;27;2836181;-73
2023/05/01 02:40:37;;;;;;;;;31.00;25.60;;;;;-150.52;100.00;63513.88;2039103;28;3592932;-73
2023/05/01 02:41:48;;;;;;;;;24.50;21.50;;;;;-150.52;100.00;63513.88;2026908;27;2839832;-73
2023/05/01 02:43:03;;;;;;;;;30.00;27.00;;;;;-150.52;100.00;63513.88;2002705;27;2852349;-73
2023/05/01 02:44:15;;;;;;;;;21.50;20.00;;;;;-150.52;100.00;63513.88;2009087;27;2842974;-73
2023/05/01 02:45:28;;;;;;;;;24.50;23.00;;;;;-150.52;100.00;63513.88;2009608;27;2838815;-73
2023/05/01 02:46:42;;;;;;;;;25.00;22.00;;;;;-150.52;100.00;63513.88;2029733;27;3583569;-73
2023/05/01 02:47:58;;;;;;;;;25.00;22.00;;;;;-150.52;100.00;63513.88;2001502;28;2840902;-73
2023/05/01 02:49:10;;;;;;;;;27.00;18.50;;;;;-150.52;100.00;63513.88;2007745;27;2842981;-73
2023/05/01 02:50:22;;;;;;;;;26.50;22.50;;;;;-150.52;100.00;63513.88;2008257;27;2850276;-73
2023/05/01 02:51:35;;;;;;;;;27.00;24.00;;;;;-150.52;100.00;63513.88;1999977;28;2854816;-73
2023/05/01 02:52:46;;;;;;;;;23.50;19.50;;;;;-150.52;100.00;63513.88;1994827;28;2843366;-73
2023/05/01 02:53:58;;;;;;;;;21.60;21.40;;;;;-150.52;100.00;63513.88;2004615;27;3593400;-73
2023/05/01 02:55:10;;;;;;;;;21.33;21.33;;;;;-150.52;100.00;63513.88;2030141;27;3577347;-73
2023/05/01 02:56:25;;;;;;;;;28.20;25.20;;;;;-150.52;100.00;63513.88;2005107;27;3588792;-73
2023/05/01 02:57:36;;;;;;;;;22.50;19.50;;;;;-150.52;100.00;63513.88;2020005;28;2839879;-73
2023/05/01 02:58:49;;;;;;;;;22.60;18.40;;;;;-150.52;100.00;63513.88;2003563;28;3579359;-73
2023/05/01 02:59:59;;;;;;;;;17.00;15.00;;;;;-150.52;100.00;63513.88;2022123;27;2805508;-73
2023/05/01 03:01:11;;;;;;;;;25.80;21.80;;;;;-150.52;100.00;63513.88;2016900;28;3578340;-73
2023/05/01 03:02:23;;;;;;;;;26.60;21.20;;;;;-150.52;100.00;63513.88;2043860;27;3587743;-73
2023/05/01 03:03:36;;;;;;;;;21.80;19.20;;;;;-150.52;100.00;63513.88;2031504;27;3563040;-73
2023/05/01 03:04:47;;;;;;;;;27.00;24.00;;;;;-150.52;100.00;63513.88;2034367;27;2841943;-73
2023/05/01 03:05:58;;;;;;;;;25.00;20.60;;;;;-150.52;100.00;63513.88;2012376;28;3580399;-73
2023/05/01 03:07:10;;;;;;;;;25.40;24.20;;;;;-150.52;100.00;63513.88;2016825;27;3577287;-73
2023/05/01 03:08:22;;;;;;;;;24.67;21.00;;;;;-150.52;100.00;63513.88;2024001;27;3579428;-73
2023/05/01 03:09:34;;;;;;;;;24.20;22.60;;;;;-150.52;100.00;63513.88;2043613;27;3574601;-73
2023/05/01 03:10:46;;;;;;;;;23.60;20.40;;;;;-150.52;100.00;63513.88;2015851;27;3584559;-73
2023/05/01 03:11:58;;;;;;;;;23.00;21.33;;;;;-150.52;100.00;63513.88;2015102;27;3582543;-73
2023/05/01 03:13:10;;;;;;;;;28.00;22.80;;;;;-150.52;100.00;63513.88;2018984;27;3583585;-73
2023/05/01 03:14:22;;;;;;;;;20.33;18.67;;;;;-150.52;100.00;63513.88;2002755;27;3579409;-73
2023/05/01 03:15:34;;;;;;;;;21.00;20.00;;;;;-150.52;100.00;63513.88;2019965;27;3579358;-73
2023/05/01 03:16:46;;;;;;;;;22.60;20.40;;;;;-150.52;100.00;63513.88;2025274;27;3578686;-73
2023/05/01 03:17:58;;;;;;;;;24.00;21.80;;;;;-150.52;100.00;63513.88;2012716;28;3585608;-73
2023/05/01 03:19:10;;;;;;;;;21.00;19.20;;;;;-150.52;100.00;63513.88;2041977;28;3572449;-73
2023/05/01 03:20:22;;;;;;;;;26.00;22.80;;;;;-150.52;100.00;63513.88;2019559;27;3589791;-73
2023/05/01 03:21:34;;;;;;;;;23.40;19.40;;;;;-150.52;100.00;63513.88;2019424;27;3558666;-73
2023/05/01 03:22:45;;;;;;;;;22.33;22.33;;;;;-150.52;100.00;63513.88;2039637;28;3586702;-73
2023/05/01 03:23:57;;;;;;;;;26.60;22.60;;;;;-150.52;100.00;63513.88;2050130;27;3590820;-73
2023/05/01 03:25:09;;;;;;;;;21.80;19.00;;;;;-150.52;100.00;63513.88;2029106;27;3571042;-73
2023/05/01 03:26:21;;;;;;;;;22.20;20.20;;;;;-150.52;100.00;63513.88;2054448;27;3580415;-73
2023/05/01 03:27:33;;;;;;;;;25.80;24.20;;;;;-150.52;100.00;63513.88;2024316;27;3576269;-73
2023/05/01 03:28:44;;;;;;;;;23.00;20.80;;;;;-150.52;100.00;63513.88;2037012;27;2850342;-73
2023/05/01 03:29:56;;;;;;;;;28.00;23.00;;;;;-150.52;100.00;63513.88;2045802;27;3591862;-73
2023/05/01 03:31:08;;;;;;;;;22.00;20.00;;;;;-150.52;100.00;63513.88;2017690;27;3573141;-73
2023/05/01 03:32:21;;;;;;;;;17.67;17.67;;;;;-150.52;100.00;63513.88;2034452;28;3554403;-73
2023/05/01 03:33:31;;;;;;;;;20.50;20.00;;;;;-150.52;100.00;63513.88;2026017;27;2844016;-73
2023/05/01 03:34:44;;;;;;;;;25.40;22.60;;;;;-150.52;100.00;63513.88;2040103;28;3582901;-73
2023/05/01 03:36:02;;;;;;;;;25.00;21.00;;;;;-150.52;100.00;63513.88;2025449;27;2844015;-73
2023/05/01 03:37:14;;;;;;;;;24.00;21.00;;;;;-150.52;100.00;63513.88;2009461;27;2842985;-73
2023/05/01 03:38:26;;;;;;;;;23.67;22.67;;;;;-150.52;100.00;63513.88;2007062;27;2839805;-73
2023/05/01 03:39:36;;;;;;;;;21.00;20.00;;;;;-150.52;100.00;63513.88;2019521;28;2838756;-73
2023/05/01 03:40:48;;;;;;;;;20.33;18.67;;;;;-150.52;100.00;63513.88;2014529;28;3558582;-73
2023/05/01 03:42:01;;;;;;;;;19.40;18.60;;;;;-150.52;100.00;63513.88;2036198;28;3568951;-73
2023/05/01 03:43:11;;;;;;;;;26.00;25.00;;;;;-150.52;100.00;63513.88;2026258;27;2840873;-73
2023/05/01 03:44:22;;;;;;;;;25.60;21.60;;;;;-150.52;100.00;63513.88;2013513;27;2848247;-73
2023/05/01 03:45:34;;;;;;;;;29.40;22.60;;;;;-150.52;100.00;63513.88;2051426;27;3588794;-73
2023/05/01 03:46:47;;;;;;;;;25.40;21.60;;;;;-150.52;100.00;63513.88;2053371;27;3576332;-73
2023/05/01 03:47:58;;;;;;;;;25.00;23.40;;;;;-150.52;100.00;63513.88;2004911;28;3585616;-73
2023/05/01 03:49:11;;;;;;;;;20.00;18.67;;;;;-150.52;100.00;63513.88;2012167;27;3566911;-73
2023/05/01 03:50:22;;;;;;;;;29.00;26.50;;;;;-150.52;100.00;63513.88;2021679;28;2852363;-73
2023/05/01 03:51:33;;;;;;;;;27.40;26.00;;;;;-150.52;100.00;63513.88;2012871;28;3597102;-73
2023/05/01 03:52:45;;;;;;;;;30.80;26.20;;;;;-150.52;100.00;63513.88;2051119;27;3593941;-73
2023/05/01 03:53:58;;;;;;;;;32.00;30.20;;;;;-150.52;100.00;63513.88;2021226;28;3604402;-73
2023/05/01 03:55:09;;;;;;;;;28.50;28.50;;;;;-150.52;100.00;63513.88;2010974;27;2854384;-73
2023/05/01 03:56:24;;;;;;;;;30.50;30.50;;;;;-150.52;100.00;63513.88;2022919;27;3604354;-73
2023/05/01 03:57:35;;;;;;;;;34.00;28.50;;;;;-150.52;100.00;63513.88;2031717;27;2866942;-73
2023/05/01 03:58:46;;;;;;;;;29.00;25.00;;;;;-150.52;100.00;63513.88;2009369;27;2844067;-73
2023/05/01 03:59:58;;;;;;;;;33.60;31.80;;;;;-150.52;100.00;63513.88;2025280;27;3604397;-73
2023/05/01 04:01:10;;;;;;;;;34.00;30.40;;;;;-150.52;100.00;63513.88;2023104;27;3600794;-73
2023/05/01 04:02:22;;;;;;;;;33.20;30.20;;;;;-150.52;100.00;63513.88;2028954;27;3590852;-73
2023/05/01 04:03:34;;;;;;;;;41.67;32.00;;;;;-150.52;100.00;63513.88;2015641;28;3611712;-73
2023/05/01 04:04:46;;;;;;;;;43.60;34.60;;;;;-150.52;100.00;63513.88;2013443;28;3589806;-73
2023/05/01 04:05:58;;;;;;;;;39.20;33.80;;;;;-150.52;100.00;63513.88;2020690;28;3606441;-73
2023/05/01 04:07:10;;;;;;;;;35.20;31.60;;;;;-150.52;100.00;63513.88;2015291;27;3601307;-73
2023/05/01 04:08:22;;;;;;;;;39.80;34.00;;;;;-150.52;100.00;63513.88;2013304;27;3591898;-73
2023/05/01 04:09:34;;;;;;;;;44.00;34.33;;;;;-150.52;100.00;63513.88;2019524;27;3603801;-73
2023/05/01 04:10:46;;;;;;;;;39.00;34.20;;;;;-150.52;100.00;63513.88;2028770;27;3578342;-73
2023/05/01 04:11:58;;;;;;;;;35.60;33.40;;;;;-150.52;100.00;63513.88;2054325;27;3574225;-73
2023/05/01 04:13:10;;;;;;;;;40.00;34.20;;;;;-150.52;100.00;63513.88;2045066;27;3593966;-73
2023/05/01 04:14:21;;;;;;;;;39.50;34.00;;;;;-150.52;100.00;63513.88;2004817;27;2848135;-73
2023/05/01 04:15:33;;;;;;;;;29.00;21.00;;;;;-150.52;100.00;63513.88;2019918;27;3592927;-73
2023/05/01 04:16:45;;;;;;;;;44.00;34.20;;;;;-150.52;100.00;63513.88;2026987;27;3591855;-73
2023/05/01 04:17:57;;;;;;;;;42.80;34.00;;;;;-150.52;100.00;63513.88;2021624;27;3604370;-73
2023/05/01 04:19:09;;;;;;;;;44.60;37.00;;;;;-150.52;100.00;63513.88;2028100;27;3596032;-73
2023/05/01 04:20:21;;;;;;;;;40.60;35.00;;;;;-150.52;100.00;63513.88;2027676;27;3584590;-73
2023/05/01 04:21:33;;;;;;;;;45.60;36.40;;;;;-150.52;100.00;63513.88;2043200;27;3596179;-74
2023/05/01 04:22:45;;;;;;;;;42.40;35.00;;;;;-150.52;100.00;63513.88;2012586;27;3610608;-73
2023/05/01 04:23:57;;;;;;;;;45.80;35.60;;;;;-150.52;100.00;63513.88;2025760;27;3587695;-74
2023/05/01 04:25:09;;;;;;;;;43.00;36.60;;;;;-150.52;100.00;63513.88;2029138;27;3583868;-73
2023/05/01 04:26:21;;;;;;;;;46.60;38.20;;;;;-150.52;100.00;63513.88;2040385;27;3602291;-73
2023/05/01 04:27:33;;;;;;;;;47.20;38.40;;;;;-150.52;100.00;63513.88;2003790;28;3589805;-73
2023/05/01 04:28:45;;;;;;;;;44.80;39.60;;;;;-150.52;100.00;63513.88;2018324;28;3586004;-74
2023/05/01 04:29:57;;;;;;;;;45.00;38.80;;;;;-150.52;100.00;63513.88;2025951;27;3590917;-74
2023/05/01 04:31:08;;;;;;;;;45.80;36.80;;;;;-150.52;100.00;63513.88;2023170;27;3587699;-73
2023/05/01 04:32:21;;;;;;;;;50.00;38.00;;;;;-150.52;100.00;63513.88;2028220;27;3602298;-73
2023/05/01 04:33:33;;;;;;;;;54.40;41.20;;;;;-150.52;100.00;63513.88;2017716;27;3614802;-73
2023/05/01 04:34:44;;;;;;;;;46.80;36.80;;;;;-150.52;100.00;63513.88;2022299;27;3592933;-73
2023/05/01 04:35:56;;;;;;;;;49.60;38.00;;;;;-150.52;100.00;63513.88;2026941;27;3602274;-73
2023/05/01 04:37:09;;;;;;;;;51.40;40.00;;;;;-150.52;100.00;63513.88;2019688;28;3602309;-73
2023/05/01 04:38:20;;;;;;;;;53.40;40.60;;;;;-150.52;100.00;63513.88;2009229;27;3600257;-73
2023/05/01 04:39:32;;;;;;;;;54.60;41.80;;;;;-150.52;100.00;63513.88;2026951;27;3604377;-73
2023/05/01 04:40:45;;;;;;;;;50.60;40.60;;;;;-150.52;100.00;63513.88;2018118;28;3593969;-73
2023/05/01 04:41:56;;;;;;;;;43.40;35.60;;;;;-150.52;100.00;63513.88;2014128;27;3575200;-73
2023/05/01 04:43:08;;;;;;;;;49.40;37.80;;;;;-150.52;100.00;63513.88;2043734;28;3594978;-73
2023/05/01 04:44:20;;;;;;;;;53.80;40.20;;;;;-150.52;100.00;63513.88;2025214;27;3604354;-73
2023/05/01 04:45:32;;;;;;;;;48.80;39.20;;;;;-150.52;100.00;63513.88;2013110;28;3590849;-74
2023/05/01 04:46:44;;;;;;;;;55.80;40.20;;;;;-150.52;100.00;63513.88;2019992;27;3623150;-73
2023/05/01 04:47:56;;;;;;;;;47.60;40.00;;;;;-150.52;100.00;63513.88;2024075;27;3597086;-73
2023/05/01 04:49:08;;;;;;;;;54.80;41.60;;;;;-150.52;100.00;63513.88;2009390;28;3607491;-73
2023/05/01 04:50:20;;;;;;;;;44.60;37.60;;;;;-150.52;100.00;63513.88;2017068;27;3587718;-74
2023/05/01 04:51:32;;;;;;;;;50.00;38.80;;;;;-150.52;100.00;63513.88;2042277;28;3609589;-73
2023/05/01 04:52:44;;;;;;;;;52.40;37.40;;;;;-150.52;100.00;63513.88;2019774;27;3633559;-73
2023/05/01 04:53:56;;;;;;;;;56.00;42.40;;;;;-150.52;100.00;63513.88;2017771;27;3626299;-73
2023/05/01 04:55:08;;;;;;;;;51.60;41.20;;;;;-150.52;100.00;63513.88;2020403;27;3605399;-73
2023/05/01 04:56:20;;;;;;;;;55.20;42.20;;;;;-150.52;100.00;63513.88;2019256;27;3629353;-73
2023/05/01 04:57:32;;;;;;;;;49.60;39.00;;;;;-150.52;100.00;63513.88;2024951;27;3603335;-73
2023/05/01 04:58:44;;;;;;;;;54.00;41.20;;;;;-150.52;100.00;63513.88;2028574;27;3601256;-73
2023/05/01 04:59:56;;;;;;;;;52.00;41.40;;;;;-150.52;100.00;63513.88;2027283;27;3600210;-74
2023/05/01 05:01:08;;;;;;;;;53.20;41.80;;;;;-150.52;100.00;63513.88;2012565;27;3596115;-73
2023/05/01 05:02:20;;;;;;;;;56.60;44.00;;;;;-150.52;100.00;63513.88;2013391;27;3618952;-74
2023/05/01 05:03:32;;;;;;;;;55.20;41.80;;;;;-150.52;100.00;63513.88;2021596;28;3629769;-74
2023/05/01 05:04:44;;;;;;;;;57.20;43.60;;;;;-150.52;100.00;63513.88;2012451;28;3629380;-73
2023/05/01 05:05:56;;;;;;;;;53.60;43.40;;;;;-150.52;100.00;63513.88;2022326;27;3620005;-73
2023/05/01 05:07:08;;;;;;;;;56.80;43.60;;;;;-150.52;100.00;63513.88;2030768;27;3617413;-73
2023/05/01 05:08:20;;;;;;;;;54.40;42.80;;;;;-150.52;100.00;63513.88;2008858;27;3606485;-73
2023/05/01 05:09:32;;;;;;;;;51.20;42.40;;;;;-150.52;100.00;63513.88;2026682;27;3584631;-73
2023/05/01 05:10:44;;;;;;;;;53.60;44.20;;;;;-150.52;100.00;63513.88;2051131;27;3614793;-73
2023/05/01 05:11:56;;;;;;;;;56.80;42.40;;;;;-150.52;100.00;63513.88;2019436;27;3609618;-73
2023/05/01 05:13:08;;;;;;;;;49.00;37.80;;;;;-150.52;100.00;63513.88;2027300;27;3600200;-74
2023/05/01 05:14:20;;;;;;;;;49.00;39.00;;;;;-150.52;100.00;63513.88;1995741;28;3592928;-73
2023/05/01 05:15:32;;;;;;;;;52.40;39.60;;;;;-150.52;100.00;63513.88;2009073;27;3610706;-74
2023/05/01 05:16:44;;;;;;;;;57.40;43.40;;;;;-150.52;100.00;63513.88;2024321;27;3631448;-74
2023/05/01 05:17:56;;;;;;;;;44.80;35.00;;;;;-150.52;100.00;63513.88;2025924;27;3619978;-73
2023/05/01 05:19:08;;;;;;;;;58.20;45.00;;;;;-150.52;100.00;63513.88;2029522;27;3614900;-73
2023/05/01 05:20:20;;;;;;;;;54.20;42.20;;;;;-150.52;100.00;63513.88;2023139;27;3618931;-73